Time;durP1;ratioP1;P1;durP2;ratioP2;P2;SDS_P1;SDS_P2;PMS_P1;PMS_P2;Temp;Humidity;BMP_temperature;BMP_pressure;BME280_temperature;BME280_humidity;BME280_pressure;Samples;Min_cycle;Max_cycle;Signal;HPM_P1;HPM_P2
2021/09/13 00:05:34;;;;;;;17.77;12.88;;;;;;;20.79;100.00;99087.52;4107968;85;28485;-84
2021/09/13 00:11:37;;;;;;;16.32;11.45;;;;;;;20.71;100.00;99080.00;4137816;85;28537;-85
2021/09/13 00:17:39;;;;;;;16.60;11.25;;;;;;;20.54;100.00;99082.70;4132600;85;28489;-83
2021/09/13 00:23:40;;;;;;;17.50;12.65;;;;;;;20.57;100.00;99080.77;4125235;85;28510;-83
2021/09/13 00:29:41;;;;;;;17.98;12.75;;;;;;;20.52;100.00;99078.09;4144660;85;28464;-84
2021/09/13 00:35:44;;;;;;;20.08;13.38;;;;;;;20.49;100.00;99082.80;4097406;86;28454;-85
2021/09/13 00:41:45;;;;;;;17.05;13.05;;;;;;;20.43;100.00;99075.23;4155551;85;28602;-83
2021/09/13 00:47:46;;;;;;;19.05;13.13;;;;;;;20.28;100.00;99076.27;4109023;85;28502;-85
2021/09/13 00:53:48;;;;;;;21.80;13.88;;;;;;;20.19;100.00;99071.20;4006686;87;28505;-85
2021/09/13 00:59:50;;;;;;;19.62;13.32;;;;;;;20.02;100.00;99068.42;4094261;86;28485;-84
2021/09/13 01:05:51;;;;;;;18.00;12.33;;;;;;;20.00;100.00;99072.00;4131708;85;28474;-84
2021/09/13 01:11:53;;;;;;;20.68;13.10;;;;;;;20.06;100.00;99059.09;4134419;85;28496;-83
2021/09/13 01:17:55;;;;;;;18.85;12.40;;;;;;;19.94;100.00;99064.97;4141512;85;28472;-85
2021/09/13 01:23:57;;;;;;;18.37;13.18;;;;;;;19.77;100.00;99055.89;4102522;85;28526;-84
2021/09/13 01:29:59;;;;;;;17.62;12.55;;;;;;;19.72;100.00;99054.60;4122681;85;28485;-84
2021/09/13 01:36:01;;;;;;;21.35;13.83;;;;;;;19.42;100.00;99056.05;4066644;86;28476;-84
2021/09/13 01:42:03;;;;;;;19.82;13.90;;;;;;;19.57;100.00;99043.33;4131507;85;28540;-83
2021/09/13 01:48:07;;;;;;;20.57;14.13;;;;;;;19.46;100.00;99050.80;4123316;85;28507;-84
2021/09/13 01:54:09;;;;;;;18.82;13.32;;;;;;;19.58;100.00;99052.59;4145557;85;28519;-85
2021/09/13 02:00:12;;;;;;;19.82;14.15;;;;;;;19.51;100.00;99055.64;4092699;86;28495;-84
2021/09/13 02:06:17;;;;;;;18.90;13.13;;;;;;;19.46;100.00;99065.26;4123909;85;28589;-84
2021/09/13 02:12:20;;;;;;;16.52;13.13;;;;;;;19.37;100.00;99066.98;4120940;85;28511;-83
2021/09/13 02:18:22;;;;;;;20.72;12.90;;;;;;;19.30;100.00;99070.59;4117799;85;28490;-83
2021/09/13 02:24:25;;;;;;;16.67;12.68;;;;;;;19.30;100.00;99067.34;4064821;85;28493;-83
2021/09/13 02:30:27;;;;;;;18.17;12.33;;;;;;;19.29;100.00;99075.79;4076108;85;28506;-84
2021/09/13 02:36:29;;;;;;;17.62;13.03;;;;;;;19.30;100.00;99076.88;4115186;85;28502;-83
2021/09/13 02:42:31;;;;;;;18.02;12.88;;;;;;;19.32;100.00;99069.78;4127168;85;28479;-83
2021/09/13 02:48:32;;;;;;;16.00;12.55;;;;;;;19.38;100.00;99075.42;4107861;85;28517;-83
2021/09/13 02:54:35;;;;;;;19.02;13.03;;;;;;;19.50;100.00;99071.73;4119330;86;28502;-82
2021/09/13 03:00:36;;;;;;;19.10;13.35;;;;;;;19.43;100.00;99067.20;4120448;86;28497;-85
2021/09/13 03:06:40;;;;;;;17.57;12.85;;;;;;;19.54;100.00;99078.80;4120602;86;28514;-85
2021/09/13 03:12:42;;;;;;;17.48;12.25;;;;;;;19.67;100.00;99078.66;4120476;86;28446;-85
2021/09/13 03:18:44;;;;;;;17.02;12.43;;;;;;;19.56;100.00;99081.24;4119175;86;28503;-86
2021/09/13 03:24:45;;;;;;;18.60;12.90;;;;;;;19.83;100.00;99077.09;4098279;86;28484;-86
2021/09/13 03:30:47;;;;;;;17.17;12.95;;;;;;;19.77;100.00;99086.72;4117130;86;28602;-86
2021/09/13 03:36:49;;;;;;;18.02;13.55;;;;;;;19.95;100.00;99083.00;4115303;85;28470;-84
2021/09/13 03:42:50;;;;;;;19.67;14.38;;;;;;;19.84;100.00;99082.83;4140403;85;28501;-82
2021/09/13 03:48:52;;;;;;;19.37;14.05;;;;;;;19.76;100.00;99082.37;4112190;85;28478;-82
2021/09/13 03:54:53;;;;;;;22.02;14.10;;;;;;;19.87;100.00;99081.67;4168044;85;28471;-82
2021/09/13 04:00:55;;;;;;;17.40;13.72;;;;;;;19.83;100.00;99085.28;4178788;85;28554;-82
2021/09/13 04:13:19;;;;;;;17.57;12.88;;;;;;;19.89;100.00;99082.22;4189202;84;28478;-82
2021/09/13 04:19:24;;;;;;;18.27;12.98;;;;;;;19.92;100.00;99088.45;4161521;84;28485;-83
2021/09/13 04:25:32;;;;;;;18.37;12.20;;;;;;;20.06;100.00;99089.11;4045158;87;28505;-82
2021/09/13 04:31:41;;;;;;;22.87;12.60;;;;;;;19.99;100.00;99079.10;4074676;86;28494;-83
2021/09/13 04:37:48;;;;;;;18.75;12.25;;;;;;;19.87;100.00;99093.16;4124038;85;28899;-82
2021/09/13 04:44:08;;;;;;;18.00;12.33;;;;;;;19.92;100.00;99092.54;4124527;85;28482;-83
2021/09/13 04:50:13;;;;;;;17.43;11.63;;;;;;;20.03;100.00;99097.89;4062736;86;28476;-85
2021/09/13 04:56:19;;;;;;;16.93;11.80;;;;;;;20.17;100.00;99099.36;4130298;86;28508;-82
2021/09/13 05:02:21;;;;;;;15.93;11.12;;;;;;;20.10;100.00;99103.81;4124919;86;28504;-83
2021/09/13 05:08:22;;;;;;;16.82;10.95;;;;;;;20.13;100.00;99097.77;4112336;86;28499;-82
2021/09/13 05:14:24;;;;;;;16.32;12.33;;;;;;;20.24;100.00;99105.24;4136322;86;28489;-81
2021/09/13 05:20:26;;;;;;;16.97;12.07;;;;;;;20.16;100.00;99104.55;4115628;86;28633;-83
2021/09/13 05:26:28;;;;;;;18.70;12.80;;;;;;;20.31;100.00;99110.36;4114388;86;28474;-83
2021/09/13 05:32:30;;;;;;;19.25;12.13;;;;;;;20.27;100.00;99118.86;4091841;86;28515;-82
2021/09/13 05:38:35;;;;;;;16.23;12.35;;;;;;;20.53;100.00;99126.71;4186598;85;28457;-82
2021/09/13 05:44:37;;;;;;;19.30;13.10;;;;;;;20.72;100.00;99129.42;4140312;84;28523;-83
2021/09/13 05:50:39;;;;;;;19.95;13.38;;;;;;;20.75;100.00;99124.18;4135823;86;28503;-83
2021/09/13 05:56:49;;;;;;;20.82;14.15;;;;;;;20.78;100.00;99130.98;4110513;86;28487;-84
2021/09/13 06:02:47;;;;;;;;;;;;;;;21.12;100.00;99136.73;4094682;86;28465;-81
2021/09/13 06:08:50;;;;;;;21.50;14.87;;;;;;;21.01;100.00;99135.30;4119115;85;20213;-84
2021/09/13 06:14:55;;;;;;;20.65;14.87;;;;;;;20.98;100.00;99139.42;4127738;85;28540;-84
2021/09/13 06:20:57;;;;;;;22.50;15.23;;;;;;;21.54;100.00;99145.02;4118090;85;28536;-81
2021/09/13 06:26:58;;;;;;;24.65;16.52;;;;;;;21.92;100.00;99139.98;4073209;86;28509;-81
2021/09/13 06:33:00;;;;;;;25.75;16.65;;;;;;;22.01;100.00;99142.23;4137658;85;28459;-80
2021/09/13 06:39:03;;;;;;;25.20;16.77;;;;;;;22.00;100.00;99136.50;4150189;85;28444;-83
2021/09/13 06:45:10;;;;;;;23.47;16.90;;;;;;;21.86;100.00;99148.82;4111427;85;28467;-84
2021/09/13 06:51:12;;;;;;;24.45;16.77;;;;;;;22.01;100.00;99146.91;4121773;85;28455;-83
2021/09/13 06:57:14;;;;;;;26.35;17.27;;;;;;;22.25;100.00;99149.97;4085945;86;28496;-83
2021/09/13 07:03:16;;;;;;;23.92;16.07;;;;;;;22.26;100.00;99159.26;4151671;85;28505;-83
2021/09/13 07:09:18;;;;;;;22.50;15.43;;;;;;;22.38;100.00;99159.28;4124564;85;28501;-82
2021/09/13 07:15:20;;;;;;;25.37;16.65;;;;;;;22.90;100.00;99154.83;4089728;85;28534;-82
2021/09/13 07:21:22;;;;;;;22.17;16.70;;;;;;;22.89;100.00;99162.02;4125422;85;28565;-83
2021/09/13 07:27:23;;;;;;;22.75;16.52;;;;;;;23.15;100.00;99170.98;4113317;85;28481;-83
2021/09/13 07:33:24;;;;;;;28.10;17.80;;;;;;;23.41;100.00;99173.13;4133535;85;28497;-85
2021/09/13 07:39:28;;;;;;;23.42;17.15;;;;;;;23.36;100.00;99176.22;4083565;86;28550;-84
2021/09/13 07:45:30;;;;;;;22.70;17.20;;;;;;;22.96;100.00;99174.16;4008774;87;28472;-84
2021/09/13 07:51:31;;;;;;;21.15;15.78;;;;;;;22.84;100.00;99171.17;4163428;85;28469;-86
2021/09/13 07:57:32;;;;;;;22.75;16.27;;;;;;;23.16;100.00;99175.34;4122529;86;28459;-83
2021/09/13 08:03:34;;;;;;;24.20;17.12;;;;;;;23.28;100.00;99187.16;4122746;86;28508;-82
2021/09/13 08:09:35;;;;;;;22.17;16.67;;;;;;;23.45;100.00;99191.94;4115618;85;28511;-83
2021/09/13 08:15:36;;;;;;;24.02;17.62;;;;;;;23.32;100.00;99190.33;4101713;87;28499;-83
2021/09/13 08:21:40;;;;;;;23.92;17.67;;;;;;;23.53;100.00;99185.14;4140706;85;28568;-84
2021/09/13 08:27:41;;;;;;;23.83;17.60;;;;;;;23.78;100.00;99192.98;4115358;86;28511;-83
2021/09/13 08:33:43;;;;;;;26.30;16.70;;;;;;;24.09;100.00;99194.91;4141122;85;28462;-83
2021/09/13 08:39:44;;;;;;;22.45;17.42;;;;;;;24.18;100.00;99205.37;4131589;85;28501;-85
2021/09/13 08:45:54;;;;;;;21.93;15.80;;;;;;;24.19;100.00;99202.86;4119663;85;28482;-80
2021/09/13 08:51:51;;;;;;;20.60;15.75;;;;;;;24.21;100.00;99204.75;4067538;87;28556;-80
2021/09/13 08:57:53;;;;;;;23.57;16.40;;;;;;;24.13;100.00;99212.94;4002087;89;28524;-83
2021/09/13 09:03:55;;;;;;;21.07;15.18;;;;;;;24.42;100.00;99207.45;4002039;88;28474;-82
2021/09/13 09:10:12;;;;;;;22.22;15.18;;;;;;;24.31;100.00;99213.25;3991519;87;28465;-84
2021/09/13 09:16:15;;;;;;;24.75;15.90;;;;;;;24.76;100.00;99214.13;4053380;86;28581;-83
2021/09/13 09:22:21;;;;;;;25.92;16.93;;;;;;;24.87;100.00;99214.66;4181116;84;28483;-81
2021/09/13 09:28:26;;;;;;;24.05;16.25;;;;;;;24.86;100.00;99218.55;4122433;86;28512;-85
2021/09/13 09:34:33;;;;;;;23.47;17.12;;;;;;;24.79;100.00;99214.91;4110692;86;28532;-83
2021/09/13 09:40:34;;;;;;;26.02;17.42;;;;;;;24.85;100.00;99212.80;4111107;86;28459;-84
2021/09/13 09:46:40;;;;;;;26.80;16.73;;;;;;;24.77;100.00;99208.34;4111114;86;28471;-82
2021/09/13 09:52:42;;;;;;;20.40;13.72;;;;;;;24.98;100.00;99195.88;4135786;85;28561;-83
2021/09/13 09:59:05;;;;;;;14.98;11.45;;;;;;;24.88;100.00;99190.15;4137147;85;28496;-83
2021/09/13 10:05:07;;;;;;;15.93;11.25;;;;;;;25.39;99.90;99195.12;4166443;85;28490;-84
2021/09/13 10:11:08;;;;;;;16.25;10.53;;;;;;;25.33;96.92;99187.60;4169607;85;28464;-83
2021/09/13 10:17:10;;;;;;;16.80;12.07;;;;;;;25.54;98.55;99185.56;4125715;86;28488;-84
2021/09/13 10:23:13;;;;;;;13.60;10.15;;;;;;;25.32;97.70;99189.53;4117333;85;28474;-83
2021/09/13 10:29:20;;;;;;;17.32;11.80;;;;;;;25.43;94.25;99180.38;4136076;85;28480;-84
2021/09/13 10:35:27;;;;;;;18.05;12.53;;;;;;;25.48;95.00;99167.02;4120165;85;28493;-85
2021/09/13 10:41:57;;;;;;;14.20;11.10;;;;;;;25.65;93.58;99165.35;4115437;86;28502;-85
2021/09/13 10:48:09;;;;;;;13.60;9.63;;;;;;;25.78;94.20;99168.48;4122112;86;28505;-84
2021/09/13 10:54:11;;;;;;;10.00;8.13;;;;;;;26.06;87.02;99161.11;4122688;86;28553;-85
2021/09/13 11:00:12;;;;;;;14.28;10.65;;;;;;;26.02;80.84;99166.48;4119829;85;28532;-84
2021/09/13 11:06:20;;;;;;;15.50;11.63;;;;;;;26.01;77.70;99154.44;4100630;87;28513;-88
2021/09/13 11:12:21;;;;;;;18.15;12.07;;;;;;;26.01;78.97;99146.17;4110128;85;28441;-88
2021/09/13 11:18:41;;;;;;;16.90;11.65;;;;;;;26.09;77.58;99150.01;4145873;85;28481;-89
2021/09/13 11:24:42;;;;;;;11.70;10.18;;;;;;;26.47;77.04;99143.64;4124073;85;28487;-89
2021/09/13 11:30:45;;;;;;;15.38;10.65;;;;;;;26.81;75.64;99142.30;4068568;86;28510;-89
2021/09/13 11:37:06;;;;;;;17.23;12.65;;;;;;;26.57;73.61;99138.28;4074568;86;28499;-88
2021/09/13 11:43:09;;;;;;;13.35;10.78;;;;;;;26.33;75.31;99142.52;4052860;85;28517;-88
2021/09/13 11:49:16;;;;;;;14.98;12.18;;;;;;;26.36;74.16;99134.95;4110468;86;28515;-88
2021/09/13 11:55:21;;;;;;;18.05;11.88;;;;;;;26.10;76.22;99139.22;4120664;85;28493;-87
2021/09/13 12:01:23;;;;;;;14.83;11.68;;;;;;;25.88;80.29;99137.00;4119251;85;28499;-88
2021/09/13 12:07:27;;;;;;;15.95;11.65;;;;;;;25.75;82.12;99138.83;4132429;84;28516;-86
2021/09/13 12:13:29;;;;;;;17.50;11.88;;;;;;;25.46;81.18;99136.23;4109755;85;28448;-87
2021/09/13 12:19:31;;;;;;;17.42;12.15;;;;;;;25.49;83.22;99131.47;4123573;85;28484;-85
2021/09/13 12:25:48;;;;;;;15.63;10.48;;;;;;;25.48;85.16;99127.89;4112282;85;28491;-86
2021/09/13 12:31:50;;;;;;;14.98;10.70;;;;;;;25.87;83.54;99133.42;4128794;86;28497;-87
2021/09/13 12:37:52;;;;;;;11.95;9.93;;;;;;;25.88;79.59;99132.31;4056720;87;28518;-84
2021/09/13 12:43:54;;;;;;;11.95;9.03;;;;;;;25.59;79.36;99121.50;3981890;87;28483;-84
2021/09/13 12:49:56;;;;;;;14.07;9.90;;;;;;;25.96;76.93;99123.75;4043582;86;28546;-84
2021/09/13 12:56:02;;;;;;;14.47;9.20;;;;;;;25.89;76.04;99113.83;3976125;88;28488;-89
2021/09/13 13:02:16;;;;;;;11.03;8.65;;;;;;;26.20;72.09;99111.91;3984343;88;28471;-88
2021/09/13 13:08:18;;;;;;;9.28;7.75;;;;;;;25.83;68.23;99115.96;3980182;88;28529;-88
2021/09/13 13:14:20;;;;;;;8.98;7.78;;;;;;;25.68;67.36;99117.91;4061132;85;28488;-88
2021/09/13 13:20:21;;;;;;;10.38;7.90;;;;;;;25.88;67.18;99111.66;3978212;87;28510;-89
2021/09/13 13:26:23;;;;;;;12.28;8.15;;;;;;;26.39;66.96;99113.60;4047670;87;28465;-89
2021/09/13 13:32:24;;;;;;;8.85;6.87;;;;;;;26.23;67.91;99111.22;4071623;86;28496;-82
2021/09/13 13:38:25;;;;;;;8.80;7.25;;;;;;;26.14;67.74;99105.75;4039760;85;28548;-86
2021/09/13 13:44:26;;;;;;;7.53;6.72;;;;;;;26.21;64.01;99108.00;4091780;86;28524;-82
2021/09/13 13:50:30;;;;;;;9.88;7.45;;;;;;;25.95;65.05;99118.02;4117167;86;28452;-82
2021/09/13 13:56:32;;;;;;;8.63;7.20;;;;;;;26.03;65.13;99119.09;4117153;86;28503;-83
2021/09/13 14:02:33;;;;;;;11.05;8.33;;;;;;;26.10;66.10;99111.13;4117401;86;28468;-83
2021/09/13 14:08:35;;;;;;;9.63;7.35;;;;;;;25.89;67.98;99114.64;4118319;86;28490;-82
2021/09/13 14:14:36;;;;;;;10.23;7.72;;;;;;;25.83;68.08;99115.96;4117615;86;28520;-81
2021/09/13 14:20:41;;;;;;;9.25;8.05;;;;;;;25.92;69.22;99106.27;4117961;86;28523;-83
2021/09/13 14:26:43;;;;;;;13.03;9.58;;;;;;;25.92;69.36;99110.39;4098688;85;28520;-82
2021/09/13 14:32:47;;;;;;;10.45;9.08;;;;;;;25.75;70.16;99119.56;4133012;85;28506;-85
2021/09/13 14:38:48;;;;;;;8.85;7.65;;;;;;;25.65;70.38;99120.75;4081246;85;28499;-83
2021/09/13 14:44:49;;;;;;;10.25;7.55;;;;;;;24.92;73.96;99125.12;4154150;85;28513;-85
2021/09/13 14:50:52;;;;;;;9.33;7.72;;;;;;;25.37;70.00;99127.23;4113749;86;28493;-84
2021/09/13 14:56:53;;;;;;;9.03;7.47;;;;;;;25.15;72.59;99133.98;4135656;85;28466;-86
2021/09/13 15:02:55;;;;;;;8.43;7.28;;;;;;;24.50;77.81;99144.25;4174550;85;28524;-85
2021/09/13 15:09:00;;;;;;;10.28;8.43;;;;;;;24.23;81.13;99150.84;4131081;86;28473;-90
2021/09/13 15:15:02;;;;;;;9.78;8.40;;;;;;;24.51;79.60;99154.70;4126175;85;28486;-86
2021/09/13 15:21:03;;;;;;;10.58;9.48;;;;;;;24.87;78.35;99154.17;4145914;86;28517;-88
2021/09/13 15:27:05;;;;;;;13.88;9.63;;;;;;;24.46;82.45;99154.28;4124902;85;28502;-86
2021/09/13 15:33:08;;;;;;;11.03;8.93;;;;;;;24.42;84.07;99156.07;4112215;87;28482;-88
2021/09/13 15:39:09;;;;;;;10.30;9.00;;;;;;;24.56;82.60;99152.36;4062116;86;28523;-85
2021/09/13 15:45:11;;;;;;;11.80;9.40;;;;;;;24.60;82.65;99148.64;4075584;87;28483;-86
2021/09/13 15:51:13;;;;;;;12.35;9.58;;;;;;;24.91;81.21;99149.63;4075166;87;28471;-85
2021/09/13 15:57:14;;;;;;;11.83;8.00;;;;;;;25.03;83.63;99152.52;4111996;87;28516;-84
2021/09/13 16:03:16;;;;;;;11.45;8.63;;;;;;;25.13;87.71;99151.39;4042237;88;28528;-87
2021/09/13 16:09:17;;;;;;;11.03;8.45;;;;;;;25.00;91.45;99149.05;4111656;86;28487;-86
2021/09/13 16:15:18;;;;;;;10.65;8.55;;;;;;;24.88;100.00;99150.28;4041905;87;28540;-89
2021/09/13 16:21:20;;;;;;;11.85;8.38;;;;;;;24.86;98.79;99154.72;4111625;87;28471;-87
2021/09/13 16:27:22;;;;;;;15.75;8.55;;;;;;;24.75;100.00;99152.03;4010245;88;28530;-90
2021/09/13 16:33:23;;;;;;;12.95;9.70;;;;;;;24.73;100.00;99155.13;3975214;89;28496;-88
2021/09/13 16:39:24;;;;;;;11.80;8.78;;;;;;;24.55;97.05;99155.66;4061646;88;28524;-87
2021/09/13 16:45:26;;;;;;;11.08;9.33;;;;;;;24.46;100.00;99157.03;4060992;88;28575;-87
2021/09/13 16:51:30;;;;;;;15.50;9.43;;;;;;;24.36;100.00;99157.34;4063660;87;28480;-86
2021/09/13 16:57:31;;;;;;;10.95;8.68;;;;;;;24.08;100.00;99155.67;4064380;87;28453;-85
2021/09/13 17:03:33;;;;;;;14.03;9.35;;;;;;;23.81;100.00;99158.85;4053397;87;28467;-83
2021/09/13 17:09:34;;;;;;;12.75;9.78;;;;;;;23.59;100.00;99166.61;4044460;88;28521;-83
2021/09/13 17:15:36;;;;;;;15.68;9.70;;;;;;;23.34;100.00;99166.13;4068547;87;28480;-85
2021/09/13 17:21:37;;;;;;;13.68;10.23;;;;;;;23.10;100.00;99174.11;4040706;88;28434;-80
2021/09/13 17:27:39;;;;;;;15.25;10.18;;;;;;;23.02;100.00;99179.53;4047888;86;28531;-84
2021/09/13 17:33:40;;;;;;;12.47;9.50;;;;;;;22.87;100.00;99188.94;4041089;87;28453;-84
2021/09/13 17:39:42;;;;;;;13.38;9.75;;;;;;;22.88;100.00;99187.81;4073889;86;28494;-84
2021/09/13 17:45:43;;;;;;;12.70;9.68;;;;;;;22.55;100.00;99195.11;4047365;87;28505;-85
2021/09/13 17:51:47;;;;;;;12.07;8.95;;;;;;;22.41;100.00;99205.22;4065684;86;28572;-84
2021/09/13 17:57:51;;;;;;;;;;;;;;;22.16;100.00;99212.86;4117433;86;28527;-83
2021/09/13 18:03:54;;;;;;;14.30;10.25;;;;;;;22.03;100.00;99209.00;4136337;85;20239;-85
2021/09/13 18:09:55;;;;;;;12.82;10.08;;;;;;;22.00;100.00;99217.83;4114359;85;28474;-84
2021/09/13 18:15:58;;;;;;;16.30;9.70;;;;;;;21.78;100.00;99224.80;4168414;85;28482;-85
2021/09/13 18:22:00;;;;;;;14.35;9.90;;;;;;;21.71;100.00;99225.74;4139707;84;28446;-82
2021/09/13 18:28:04;;;;;;;13.48;10.65;;;;;;;21.65;100.00;99230.46;3998849;86;28505;-83
2021/09/13 18:34:05;;;;;;;49.42;33.33;;;;;;;21.49;100.00;99222.25;4065411;86;28443;-84
2021/09/13 18:40:07;;;;;;;17.25;12.07;;;;;;;21.38;100.00;99223.00;3975065;87;28495;-83
2021/09/13 18:46:09;;;;;;;14.45;10.20;;;;;;;21.36;100.00;99231.48;3951812;88;28545;-84
2021/09/13 18:52:12;;;;;;;15.72;10.30;;;;;;;21.32;100.00;99230.47;3980339;88;28539;-82
2021/09/13 18:58:14;;;;;;;15.15;9.80;;;;;;;21.27;100.00;99235.47;3974803;88;28495;-82
2021/09/13 19:04:15;;;;;;;11.65;9.48;;;;;;;21.13;100.00;99231.30;3982552;88;28473;-84
2021/09/13 19:10:17;;;;;;;16.17;10.40;;;;;;;21.03;100.00;99233.66;3950180;89;28464;-83
2021/09/13 19:16:20;;;;;;;24.27;16.35;;;;;;;20.99;100.00;99245.47;4004208;88;28506;-84
2021/09/13 19:22:22;;;;;;;16.42;11.22;;;;;;;20.73;100.00;99241.14;3968057;88;28468;-78
2021/09/13 19:28:24;;;;;;;13.55;9.80;;;;;;;20.71;100.00;99246.63;4029361;86;28511;-87
2021/09/13 19:34:27;;;;;;;14.90;10.10;;;;;;;20.73;100.00;99247.97;4110113;85;28443;-81
2021/09/13 19:40:30;;;;;;;16.32;10.72;;;;;;;20.70;100.00;99253.20;4132710;85;28486;-84
2021/09/13 19:46:33;;;;;;;13.83;10.35;;;;;;;20.84;100.00;99251.96;4061608;87;28515;-81
2021/09/13 19:52:34;;;;;;;17.05;10.85;;;;;;;20.65;100.00;99267.74;4134548;85;28475;-83
2021/09/13 19:58:36;;;;;;;14.07;10.53;;;;;;;20.67;100.00;99261.97;4162942;84;28504;-82
2021/09/13 20:04:39;;;;;;;17.92;11.05;;;;;;;20.67;100.00;99264.16;4170842;84;28473;-82
2021/09/13 20:10:42;;;;;;;17.10;10.80;;;;;;;20.68;100.00;99263.05;4125892;86;28466;-83
2021/09/13 20:16:43;;;;;;;15.13;10.70;;;;;;;20.71;100.00;99266.55;4062868;87;28511;-80
2021/09/13 20:22:44;;;;;;;14.85;11.22;;;;;;;20.54;100.00;99269.77;4174044;85;28857;-84
2021/09/13 20:28:45;;;;;;;13.95;10.88;;;;;;;20.74;100.00;99272.81;4189420;84;28560;-83
2021/09/13 20:34:47;;;;;;;17.55;11.70;;;;;;;20.72;100.00;99281.86;4135205;85;28479;-84
2021/09/13 20:40:48;;;;;;;19.77;11.83;;;;;;;20.61;100.00;99280.34;4140668;85;28518;-87
2021/09/13 20:46:50;;;;;;;15.38;11.48;;;;;;;20.61;100.00;99283.90;4012694;87;28524;-89
2021/09/13 20:52:53;;;;;;;15.65;11.80;;;;;;;20.78;100.00;99278.52;4035505;87;28453;-82
2021/09/13 20:58:55;;;;;;;14.55;10.45;;;;;;;20.83;100.00;99279.83;4073107;86;28499;-81
2021/09/13 21:04:57;;;;;;;18.12;11.75;;;;;;;20.80;100.00;99286.39;4043606;87;28515;-83
2021/09/13 21:11:04;;;;;;;21.65;13.90;;;;;;;20.66;100.00;99293.13;4032843;88;28549;-84
2021/09/13 21:17:05;;;;;;;17.20;11.93;;;;;;;20.54;100.00;99290.26;4026885;87;28500;-82
2021/09/13 21:23:09;;;;;;;17.92;12.30;;;;;;;20.63;100.00;99297.27;4047071;86;28528;-81
2021/09/13 21:29:11;;;;;;;19.77;12.43;;;;;;;20.43;100.00;99290.95;4032130;86;28575;-82
2021/09/13 21:35:13;;;;;;;22.00;11.95;;;;;;;20.27;100.00;99290.31;4027423;87;28490;-82
2021/09/13 21:41:15;;;;;;;18.12;12.47;;;;;;;20.26;100.00;99290.59;4050685;86;28497;-83
2021/09/13 21:47:17;;;;;;;17.12;12.33;;;;;;;20.11;100.00;99293.75;4013446;87;28562;-80
2021/09/13 21:53:19;;;;;;;18.35;12.60;;;;;;;20.19;100.00;99299.13;4018485;87;28497;-83
2021/09/13 21:59:20;;;;;;;19.35;13.13;;;;;;;20.14;100.00;99299.16;4011038;87;28480;-82
2021/09/13 22:05:21;;;;;;;18.15;13.22;;;;;;;20.16;100.00;99296.98;4019470;87;28481;-82
2021/09/13 22:11:23;;;;;;;21.40;13.45;;;;;;;20.06;100.00;99296.52;4057926;86;28442;-80
2021/09/13 22:17:24;;;;;;;22.17;15.65;;;;;;;20.10;100.00;99295.39;4066408;86;28496;-81
2021/09/13 22:23:26;;;;;;;22.82;15.25;;;;;;;20.05;100.00;99297.08;4060646;86;28485;-81
2021/09/13 22:29:27;;;;;;;25.40;14.80;;;;;;;19.74;100.00;99300.06;4062627;86;28468;-81
2021/09/13 22:35:28;;;;;;;19.52;13.20;;;;;;;20.01;100.00;99293.85;4032656;86;28522;-80
2021/09/13 22:41:30;;;;;;;20.00;13.40;;;;;;;20.60;100.00;99295.93;4058040;85;28576;-81
2021/09/13 22:47:32;;;;;;;25.20;14.47;;;;;;;19.96;100.00;99300.17;3995128;87;28545;-81
2021/09/13 22:53:35;;;;;;;23.87;15.30;;;;;;;19.90;100.00;99305.37;3973885;87;28495;-83
2021/09/13 22:59:36;;;;;;;21.00;14.18;;;;;;;19.79;100.00;99306.83;4059325;87;28509;-82
2021/09/13 23:05:38;;;;;;;22.45;14.00;;;;;;;19.78;100.00;99306.56;4051038;86;28548;-81
2021/09/13 23:11:40;;;;;;;20.70;13.62;;;;;;;19.59;100.00;99315.17;4024455;86;28486;-82
2021/09/13 23:17:42;;;;;;;21.80;14.75;;;;;;;19.75;100.00;99313.97;3988915;88;28451;-81
2021/09/13 23:23:45;;;;;;;21.75;14.23;;;;;;;19.71;100.00;99310.16;3978978;88;28441;-81
2021/09/13 23:29:46;;;;;;;21.00;14.63;;;;;;;19.55;100.00;99316.28;3996051;87;28539;-81
2021/09/13 23:35:49;;;;;;;24.65;15.75;;;;;;;19.47;100.00;99321.80;4115648;84;28470;-81
2021/09/13 23:41:52;;;;;;;21.73;14.65;;;;;;;19.34;100.00;99324.61;4129644;85;28451;-81
2021/09/13 23:47:53;;;;;;;24.87;14.78;;;;;;;19.36;100.00;99321.05;4147650;85;28568;-81
2021/09/13 23:53:57;;;;;;;23.42;15.30;;;;;;;19.26;100.00;99327.92;4141084;85;28470;-80
2021/09/13 23:59:59;;;;;;;24.87;16.25;;;;;;;19.21;100.00;99324.70;4138773;85;28522;-82
